createdAt,value
2019-03-25T00:03:12.295Z,101256.67
2019-03-25T00:08:41.654Z,101248.91
2019-03-25T00:11:49.937Z,101253.06
2019-03-25T00:14:17.696Z,101253.13
2019-03-25T00:16:45.411Z,101251.57
2019-03-25T00:19:13.117Z,101247.71
2019-03-25T00:22:00.450Z,101247.66
2019-03-25T00:24:47.350Z,101243.75
2019-03-25T00:27:15.082Z,101233.31
2019-03-25T00:36:37.783Z,101230.09
2019-03-25T00:42:07.645Z,101240.14
2019-03-25T00:44:35.470Z,101234.64
2019-03-25T00:47:03.176Z,101227.48
2019-03-25T00:49:30.973Z,101230.45
2019-03-25T00:51:58.699Z,101227.76
2019-03-25T00:54:26.537Z,101226.65
2019-03-25T00:56:54.267Z,101226.98
2019-03-25T00:59:22.011Z,101234.45
2019-03-25T01:01:49.714Z,101242.98
2019-03-25T01:04:17.480Z,101235.41
2019-03-25T01:13:25.540Z,101230.97
2019-03-25T01:15:53.159Z,101232.22
2019-03-25T01:21:41.445Z,101234.61
2019-03-25T01:24:20.857Z,101239.83
2019-03-25T01:27:29.051Z,101233.58
2019-03-25T01:33:30.993Z,101224.11
2019-03-25T01:35:58.633Z,101223.42
2019-03-25T01:41:27.704Z,101216.03
2019-03-25T01:44:15.003Z,101212.55
2019-03-25T01:49:56.218Z,101210.20
2019-03-25T01:52:23.962Z,101198.48
2019-03-25T01:54:51.684Z,101210.25
2019-03-25T01:57:19.419Z,101199.25
2019-03-25T02:00:06.350Z,101185.47
2019-03-25T02:05:47.108Z,101187.35
2019-03-25T02:08:46.319Z,101196.16
2019-03-25T02:11:14.099Z,101195.89
2019-03-25T02:13:53.752Z,101192.56
2019-03-25T02:16:21.514Z,101188.60
2019-03-25T02:18:49.468Z,101190.05
2019-03-25T02:21:17.209Z,101179.77
2019-03-25T02:24:25.644Z,101181.59
2019-03-25T02:30:14.096Z,101185.90
2019-03-25T02:32:41.849Z,101185.12
2019-03-25T02:35:09.573Z,101186.56
2019-03-25T02:37:56.516Z,101187.30
2019-03-25T02:40:43.413Z,101181.75
2019-03-25T02:43:51.732Z,101185.55
2019-03-25T02:46:19.455Z,101169.92
2019-03-25T02:48:47.201Z,101172.34
2019-03-25T02:51:34.168Z,101171.29
2019-03-25T02:54:02.047Z,101163.86
2019-03-25T02:57:21.649Z,101162.02
2019-03-25T03:03:14.908Z,101158.54
2019-03-25T03:05:42.553Z,101160.92
2019-03-25T03:08:10.279Z,101152.86
2019-03-25T03:10:50.115Z,101143.02
2019-03-25T03:13:17.881Z,101145.51
2019-03-25T03:16:04.687Z,101149.03
2019-03-25T03:18:51.999Z,101147.91
2019-03-25T03:21:32.021Z,101131.68
2019-03-25T03:27:53.539Z,101126.15
2019-03-25T03:30:21.258Z,101126.08
2019-03-25T03:32:56.164Z,101131.44
2019-03-25T03:35:46.322Z,101128.81
2019-03-25T03:38:38.854Z,101124.79
2019-03-25T03:44:59.930Z,101114.54
2019-03-25T03:50:40.489Z,101102.23
2019-03-25T04:01:49.577Z,101104.11
2019-03-25T04:04:17.276Z,101106.67
2019-03-25T04:06:57.463Z,101108.84
2019-03-25T04:09:25.148Z,101105.37
2019-03-25T04:11:52.882Z,101103.00
2019-03-25T04:14:21.066Z,101096.39
2019-03-25T04:20:20.806Z,101085.39
2019-03-25T04:22:48.509Z,101089.50
2019-03-25T04:28:29.791Z,101079.04
2019-03-25T04:37:14.316Z,101076.74
2019-03-25T04:39:41.957Z,101080.20
2019-03-25T04:42:09.686Z,101075.77
2019-03-25T04:44:56.683Z,101071.11
2019-03-25T04:47:24.381Z,101074.44
2019-03-25T04:50:13.414Z,101066.98
2019-03-25T04:52:41.101Z,101069.16
2019-03-25T04:55:49.335Z,101057.47
2019-03-25T05:01:29.978Z,101052.78
2019-03-25T05:03:57.762Z,101054.06
2019-03-25T05:12:07.186Z,101046.23
2019-03-25T05:14:54.112Z,101051.72
2019-03-25T05:17:21.888Z,101047.16
2019-03-25T05:19:49.579Z,101048.84
2019-03-25T05:22:36.912Z,101053.98
2019-03-25T05:27:44.623Z,101052.88
2019-03-25T05:30:24.595Z,101049.08
2019-03-25T05:33:11.448Z,101042.98
2019-03-25T05:35:51.261Z,101043.31
2019-03-25T05:38:18.970Z,101037.53
2019-03-25T05:46:47.037Z,101039.08
2019-03-25T05:49:14.772Z,101043.41
2019-03-25T05:51:54.495Z,101047.25
2019-03-25T05:54:22.190Z,101056.09
2019-03-25T05:56:49.918Z,101057.48
2019-03-25T06:01:58.340Z,101065.66
2019-03-25T06:04:26.449Z,101063.98
2019-03-25T06:06:54.199Z,101054.52
2019-03-25T06:09:22.292Z,101051.67
2019-03-25T06:11:50.131Z,101051.50
2019-03-25T06:14:58.415Z,101042.65
2019-03-25T06:17:26.119Z,101033.06
2019-03-25T06:22:56.480Z,100994.75
2019-03-25T06:25:24.231Z,101023.83
2019-03-25T06:27:51.954Z,101017.30
2019-03-25T06:30:51.304Z,101010.08
2019-03-25T06:33:19.043Z,101007.46
2019-03-25T06:35:46.663Z,100990.48
2019-03-25T06:38:14.467Z,100989.03
2019-03-25T06:44:05.275Z,100994.48
2019-03-25T06:46:33.028Z,101005.39
2019-03-25T06:49:00.767Z,101013.41
2019-03-25T06:51:28.564Z,101022.71
2019-03-25T07:00:00.499Z,101026.41
2019-03-25T07:03:09.211Z,101028.08
2019-03-25T07:05:36.858Z,101018.86
2019-03-25T07:11:13.222Z,101030.05
2019-03-25T07:13:40.970Z,101020.93
2019-03-25T07:21:50.804Z,101030.44
2019-03-25T07:24:37.740Z,101039.02
2019-03-25T07:27:05.862Z,101040.60
2019-03-25T07:29:33.558Z,101042.20
2019-03-25T07:32:20.405Z,101052.80
2019-03-25T07:43:52.418Z,101061.71
2019-03-25T07:49:00.228Z,101072.79
2019-03-25T07:51:27.980Z,101072.81
2019-03-25T07:54:27.318Z,101072.99
2019-03-25T07:56:55.007Z,101079.10
2019-03-25T07:59:42.001Z,101089.03
2019-03-25T08:02:09.699Z,101092.48
2019-03-25T08:04:38.757Z,101085.59
2019-03-25T08:07:16.722Z,101085.73
2019-03-25T08:09:44.513Z,101083.23
2019-03-25T08:12:12.241Z,101084.72
2019-03-25T08:17:33.391Z,101089.45
2019-03-25T08:20:01.790Z,101078.33
2019-03-25T08:22:50.484Z,101075.03
2019-03-25T08:25:18.293Z,101067.93
2019-03-25T08:27:45.990Z,101073.17
2019-03-25T08:30:54.576Z,101076.83
2019-03-25T08:33:22.672Z,101071.63
2019-03-25T08:35:50.291Z,101077.56
2019-03-25T08:41:19.328Z,101086.39
2019-03-25T08:46:55.816Z,101084.57
2019-03-25T08:49:43.125Z,101088.34
2019-03-25T08:55:12.415Z,101093.03
2019-03-25T08:57:40.130Z,101083.19
2019-03-25T09:12:05.849Z,101095.02
2019-03-25T09:14:33.629Z,101088.86
2019-03-25T09:23:11.352Z,101076.19
2019-03-25T09:25:39.089Z,101072.97
2019-03-25T09:28:06.849Z,101080.58
2019-03-25T09:31:12.979Z,101078.94
2019-03-25T09:37:15.684Z,101080.23
2019-03-25T09:39:50.155Z,101098.97
2019-03-25T09:42:17.831Z,101095.09
2019-03-25T09:44:45.918Z,101079.38
2019-03-25T09:50:26.530Z,101060.22
2019-03-25T09:52:54.129Z,101071.57
2019-03-25T09:55:22.251Z,101080.23
2019-03-25T09:58:09.397Z,101072.84
2019-03-25T10:03:57.273Z,101068.42
2019-03-25T10:06:31.512Z,101063.83
2019-03-25T10:08:59.339Z,101057.59
2019-03-25T10:14:54.977Z,101061.00
2019-03-25T10:17:41.907Z,101054.02
2019-03-25T10:20:50.271Z,101069.27
2019-03-25T10:23:17.975Z,101077.48
2019-03-25T10:25:45.741Z,101085.03
2019-03-25T10:28:15.268Z,101090.42
2019-03-25T10:33:44.769Z,101121.41
2019-03-25T10:36:12.544Z,101124.34
2019-03-25T10:38:40.272Z,101128.72
2019-03-25T10:41:08.007Z,101132.70
2019-03-25T10:43:35.746Z,101124.16
2019-03-25T10:46:03.463Z,101112.91
2019-03-25T10:51:24.609Z,101109.30
2019-03-25T10:53:52.366Z,101107.13
2019-03-25T10:56:20.385Z,101087.31
2019-03-25T10:58:50.697Z,101084.78
2019-03-25T11:01:56.731Z,101084.64
2019-03-25T11:04:24.439Z,101086.45
2019-03-25T11:06:52.410Z,101082.52
2019-03-25T11:09:20.189Z,101090.97
2019-03-25T11:11:47.898Z,101098.64
2019-03-25T11:14:16.048Z,101098.64
2019-03-25T11:16:43.803Z,101114.21
2019-03-25T11:19:11.502Z,101152.43
2019-03-25T11:21:58.823Z,101119.02
2019-03-25T11:24:26.566Z,101113.62
2019-03-25T11:26:54.155Z,101103.16
2019-03-25T11:29:22.018Z,101093.64
2019-03-25T11:32:09.205Z,101089.05
2019-03-25T11:34:37.288Z,101092.93
2019-03-25T11:37:04.917Z,101085.11
2019-03-25T11:39:32.687Z,101089.85
2019-03-25T11:42:00.328Z,101106.79
2019-03-25T11:44:47.259Z,101104.55
2019-03-25T11:47:14.912Z,101103.74
2019-03-25T11:49:44.572Z,101103.02
2019-03-25T11:52:32.419Z,101094.14
2019-03-25T11:55:00.238Z,101087.52
2019-03-25T12:00:52.027Z,101085.92
2019-03-25T12:03:19.648Z,101088.57
2019-03-25T12:05:47.248Z,101094.73
2019-03-25T12:08:14.901Z,101100.61
2019-03-25T12:10:42.624Z,101094.44
2019-03-25T12:13:10.389Z,101087.06
2019-03-25T12:15:38.153Z,101091.58
2019-03-25T12:18:05.745Z,101084.92
2019-03-25T12:20:33.827Z,101088.50
2019-03-25T12:23:01.593Z,101083.73
2019-03-25T12:25:29.767Z,101080.67
2019-03-25T12:28:17.075Z,101077.78
2019-03-25T12:30:44.794Z,101076.61
2019-03-25T12:33:12.450Z,101070.66
2019-03-25T12:35:40.112Z,101084.83
2019-03-25T12:41:08.936Z,101066.93
2019-03-25T12:43:36.728Z,101071.77
2019-03-25T12:46:04.470Z,101055.79
2019-03-25T12:48:32.817Z,101058.56
2019-03-25T12:51:00.629Z,101059.86
2019-03-25T12:53:28.366Z,101059.03
2019-03-25T12:55:56.516Z,101063.09
2019-03-25T12:58:43.456Z,101060.87
2019-03-25T13:01:11.229Z,101060.39
2019-03-25T13:03:40.656Z,101061.44
2019-03-25T13:06:18.735Z,101062.53
2019-03-25T13:08:46.485Z,101071.06
2019-03-25T13:11:14.098Z,101070.94
2019-03-25T13:13:41.870Z,101098.07
2019-03-25T13:16:09.534Z,101106.03
2019-03-25T13:18:37.266Z,101120.22
2019-03-25T13:21:04.985Z,101112.87
2019-03-25T13:23:51.872Z,101108.68
2019-03-25T13:26:19.543Z,101125.50
2019-03-25T13:34:46.737Z,101172.66
2019-03-25T13:37:33.629Z,101161.48
2019-03-25T13:40:01.403Z,101146.26
2019-03-25T13:45:24.463Z,101143.58
2019-03-25T13:47:52.929Z,101147.03
2019-03-25T13:50:20.982Z,101144.83
2019-03-25T13:52:49.364Z,101156.22
2019-03-25T13:58:18.111Z,101148.73
2019-03-25T14:00:45.850Z,101131.83
2019-03-25T14:03:13.473Z,101154.45
2019-03-25T14:06:01.088Z,101155.83
2019-03-25T14:08:47.906Z,101154.86
2019-03-25T14:14:30.510Z,101141.19
2019-03-25T14:16:58.234Z,101132.66
2019-03-25T14:19:26.326Z,101128.94
2019-03-25T14:21:54.072Z,101129.75
2019-03-25T14:24:40.907Z,101117.81
2019-03-25T14:27:08.629Z,101126.87
2019-03-25T14:29:36.363Z,101115.87
2019-03-25T14:32:04.310Z,101113.19
2019-03-25T14:37:12.599Z,101118.33
2019-03-25T14:39:40.498Z,101108.75
2019-03-25T14:42:08.285Z,101120.75
2019-03-25T14:44:55.104Z,101118.58
2019-03-25T14:47:22.812Z,101126.58
2019-03-25T14:50:09.714Z,101132.95
2019-03-25T14:52:37.359Z,101124.53
2019-03-25T14:55:45.791Z,101135.66
2019-03-25T15:01:32.947Z,101130.42
2019-03-25T15:06:41.650Z,101141.93
2019-03-25T15:11:49.843Z,101150.45
2019-03-25T15:14:36.774Z,101152.66
2019-03-25T15:17:04.962Z,101171.86
2019-03-25T15:19:51.883Z,101179.23
2019-03-25T15:22:19.614Z,101192.63
2019-03-25T15:24:47.335Z,101202.08
2019-03-25T15:27:15.076Z,101192.61
2019-03-25T15:32:42.966Z,101183.66
2019-03-25T15:38:12.887Z,101192.92
2019-03-25T15:40:40.739Z,101191.77
2019-03-25T15:43:08.805Z,101181.83
2019-03-25T15:45:36.553Z,101186.27
2019-03-25T15:48:04.253Z,101189.36
2019-03-25T15:50:51.474Z,101179.45
2019-03-25T15:53:19.262Z,101174.77
2019-03-25T15:56:06.565Z,101170.45
2019-03-25T16:01:47.309Z,101176.81
2019-03-25T16:04:15.360Z,101190.13
2019-03-25T16:09:44.482Z,101201.21
2019-03-25T16:12:12.234Z,101185.11
2019-03-25T16:17:43.223Z,101180.82
2019-03-25T16:20:36.694Z,101194.03
2019-03-25T16:23:36.095Z,101193.75
2019-03-25T16:29:57.807Z,101218.62
2019-03-25T16:35:27.431Z,101221.91
2019-03-25T16:37:55.638Z,101245.50
2019-03-25T16:40:23.977Z,101251.05
2019-03-25T16:42:52.458Z,101257.44
2019-03-25T16:45:20.180Z,101270.27
2019-03-25T16:47:47.817Z,101260.33
2019-03-25T16:50:16.494Z,101252.72
2019-03-25T16:52:44.333Z,101248.72
2019-03-25T16:55:13.360Z,101243.97
2019-03-25T16:57:41.416Z,101244.29
2019-03-25T17:00:09.734Z,101240.59
2019-03-25T17:02:37.566Z,101240.67
2019-03-25T17:05:07.054Z,101242.69
2019-03-25T17:07:36.531Z,101263.00
2019-03-25T17:10:04.383Z,101260.75
2019-03-25T17:12:32.319Z,101276.19
2019-03-25T17:15:00.033Z,101278.55
2019-03-25T17:17:27.948Z,101277.73
2019-03-25T17:19:55.693Z,101278.98
2019-03-25T17:22:23.999Z,101291.41
2019-03-25T17:24:51.749Z,101285.48
2019-03-25T17:27:19.517Z,101296.28
2019-03-25T17:29:47.369Z,101298.39
2019-03-25T17:32:15.138Z,101305.46
2019-03-25T17:34:42.926Z,101313.16
2019-03-25T17:37:12.019Z,101314.59
2019-03-25T17:39:40.096Z,101322.53
2019-03-25T17:42:08.182Z,101329.14
2019-03-25T17:44:35.897Z,101330.92
2019-03-25T17:47:03.647Z,101330.71
2019-03-25T17:49:31.483Z,101326.84
2019-03-25T17:51:59.217Z,101324.29
2019-03-25T17:54:27.360Z,101331.96
2019-03-25T17:56:55.103Z,101337.91
2019-03-25T17:59:22.850Z,101335.83
2019-03-25T18:01:51.046Z,101343.94
2019-03-25T18:04:19.254Z,101332.69
2019-03-25T18:06:47.034Z,101335.78
2019-03-25T18:09:14.728Z,101343.48
2019-03-25T18:11:42.486Z,101347.02
2019-03-25T18:14:10.216Z,101341.59
2019-03-25T18:16:38.067Z,101355.30
2019-03-25T18:19:06.281Z,101356.52
2019-03-25T18:21:34.169Z,101358.66
2019-03-25T18:24:01.860Z,101366.51
2019-03-25T18:26:30.219Z,101369.41
2019-03-25T18:28:57.833Z,101376.75
2019-03-25T18:31:25.569Z,101379.37
2019-03-25T18:33:53.319Z,101391.97
2019-03-25T18:36:21.118Z,101398.45
2019-03-25T18:38:48.847Z,101400.81
2019-03-25T18:41:16.980Z,101407.52
2019-03-25T18:43:44.727Z,101413.61
2019-03-25T18:46:12.498Z,101413.13
2019-03-25T18:48:42.856Z,101421.45
2019-03-25T18:51:11.178Z,101417.38
2019-03-25T18:53:38.895Z,101422.02
2019-03-25T18:56:06.715Z,101430.25
2019-03-25T18:58:35.484Z,101434.11
2019-03-25T19:01:03.436Z,101435.91
2019-03-25T19:03:32.111Z,101437.70
2019-03-25T19:05:59.710Z,101440.77
2019-03-25T19:08:30.004Z,101451.39
2019-03-25T19:10:59.323Z,101450.20
2019-03-25T19:13:29.646Z,101451.67
2019-03-25T19:15:57.594Z,101448.28
2019-03-25T19:18:26.081Z,101457.91
2019-03-25T19:20:53.780Z,101473.16
2019-03-25T19:23:21.629Z,101466.02
2019-03-25T19:25:49.383Z,101475.54
2019-03-25T19:28:17.093Z,101470.66
2019-03-25T19:30:44.899Z,101477.69
2019-03-25T19:33:12.611Z,101483.32
2019-03-25T19:35:40.728Z,101481.07
2019-03-25T19:38:08.461Z,101484.74
2019-03-25T19:40:36.255Z,101487.38
2019-03-25T19:43:04.714Z,101492.72
2019-03-25T19:45:32.340Z,101497.56
2019-03-25T19:48:00.119Z,101497.50
2019-03-25T19:50:27.854Z,101500.92
2019-03-25T19:52:55.468Z,101506.58
2019-03-25T19:55:23.295Z,101511.45
2019-03-25T19:57:50.999Z,101515.09
2019-03-25T20:00:32.366Z,101530.71
2019-03-25T20:03:00.102Z,101530.12
2019-03-25T20:05:27.848Z,101535.41
2019-03-25T20:07:55.674Z,101534.30
2019-03-25T20:10:31.438Z,101535.45
2019-03-25T20:12:59.299Z,101538.11
2019-03-25T20:15:27.012Z,101549.08
2019-03-25T20:17:54.646Z,101549.02
2019-03-25T20:20:22.390Z,101552.34
2019-03-25T20:22:50.308Z,101559.13
2019-03-25T20:25:18.031Z,101561.55
2019-03-25T20:27:45.976Z,101566.31
2019-03-25T20:30:14.109Z,101565.93
2019-03-25T20:32:41.868Z,101576.52
2019-03-25T20:35:09.957Z,101580.55
2019-03-25T20:37:37.765Z,101583.67
2019-03-25T20:40:05.911Z,101586.23
2019-03-25T20:42:34.459Z,101594.20
2019-03-25T20:45:02.146Z,101593.77
2019-03-25T20:47:30.869Z,101594.80
2019-03-25T20:49:58.625Z,101601.83
2019-03-25T20:52:26.373Z,101613.97
2019-03-25T20:54:54.104Z,101613.45
2019-03-25T20:57:21.878Z,101624.98
2019-03-25T20:59:49.594Z,101622.83
2019-03-25T21:02:17.863Z,101633.80
2019-03-25T21:04:45.611Z,101628.56
2019-03-25T21:07:13.350Z,101631.17
2019-03-25T21:09:41.100Z,101637.33
2019-03-25T21:12:08.840Z,101643.48
2019-03-25T21:14:37.032Z,101646.53
2019-03-25T21:17:04.822Z,101648.03
2019-03-25T21:19:32.694Z,101651.27
2019-03-25T21:22:00.807Z,101649.06
2019-03-25T21:24:28.617Z,101649.40
2019-03-25T21:26:56.406Z,101649.77
2019-03-25T21:29:24.434Z,101660.17
2019-03-25T21:31:52.553Z,101663.81
2019-03-25T21:34:20.392Z,101665.52
2019-03-25T21:36:48.049Z,101668.08
2019-03-25T21:39:22.475Z,101681.25
2019-03-25T21:41:56.703Z,101684.50
2019-03-25T21:44:32.974Z,101678.97
2019-03-25T21:47:00.760Z,101677.96
2019-03-25T21:49:28.807Z,101677.87
2019-03-25T21:52:00.707Z,101689.64
2019-03-25T21:54:28.665Z,101691.03
2019-03-25T21:56:56.786Z,101695.79
2019-03-25T21:59:25.347Z,101695.73
2019-03-25T22:01:53.350Z,101702.22
2019-03-25T22:04:21.110Z,101700.05
2019-03-25T22:06:48.904Z,101697.68
2019-03-25T22:09:17.142Z,101704.75
2019-03-25T22:14:30.993Z,101707.38
2019-03-25T22:16:58.848Z,101717.87
2019-03-25T22:19:26.568Z,101712.70
2019-03-25T22:21:54.324Z,101715.54
2019-03-25T22:24:22.097Z,101715.34
2019-03-25T22:26:50.186Z,101717.77
2019-03-25T22:29:18.218Z,101721.05
2019-03-25T22:31:46.047Z,101719.88
2019-03-25T22:34:13.757Z,101729.05
2019-03-25T22:36:41.585Z,101722.08
2019-03-25T22:39:09.350Z,101723.39
2019-03-25T22:41:37.073Z,101733.02
2019-03-25T22:44:45.414Z,101729.93
2019-03-25T22:47:13.126Z,101727.79
2019-03-25T22:49:40.830Z,101733.16
2019-03-25T22:55:08.407Z,101739.95
2019-03-25T22:57:55.310Z,101744.94
2019-03-25T23:03:43.972Z,101757.30
2019-03-25T23:06:12.091Z,101757.30
2019-03-25T23:08:51.604Z,101762.16
2019-03-25T23:11:19.324Z,101757.30
2019-03-25T23:13:47.032Z,101752.27
2019-03-25T23:16:33.937Z,101751.48
2019-03-25T23:19:01.681Z,101753.13
2019-03-25T23:21:31.238Z,101752.80
2019-03-25T23:23:58.958Z,101757.89
2019-03-25T23:26:38.172Z,101757.47
2019-03-25T23:29:05.924Z,101758.91
2019-03-25T23:31:33.533Z,101758.48
2019-03-25T23:34:01.235Z,101758.52
2019-03-25T23:42:10.534Z,101758.41
2019-03-25T23:47:18.826Z,101760.36
2019-03-25T23:50:06.129Z,101753.75
2019-03-25T23:52:34.093Z,101761.91
2019-03-25T23:55:01.786Z,101768.45
2019-03-25T23:57:49.119Z,101766.05
